createdAt,value
2023-04-01T00:02:20.735Z,14.80
2023-04-01T00:10:27.350Z,15.00
2023-04-01T00:18:35.413Z,15.30
2023-04-01T00:26:42.021Z,15.40
2023-04-01T00:34:50.203Z,15.30
2023-04-01T00:42:56.090Z,15.50
2023-04-01T00:51:07.995Z,15.30
2023-04-01T00:59:17.521Z,15.60
2023-04-01T01:07:36.221Z,15.50
2023-04-01T01:15:48.570Z,14.90
2023-04-01T01:24:17.510Z,14.90
2023-04-01T01:32:37.315Z,14.60
2023-04-01T01:40:53.055Z,14.40
2023-04-01T01:49:00.789Z,14.10
2023-04-01T01:57:13.369Z,14.10
2023-04-01T02:05:25.801Z,13.90
2023-04-01T02:13:42.239Z,14.00
2023-04-01T02:21:48.329Z,14.70
2023-04-01T02:29:57.099Z,15.00
2023-04-01T02:38:02.850Z,14.70
2023-04-01T02:46:10.950Z,14.70
2023-04-01T02:54:16.766Z,15.10
2023-04-01T03:02:25.384Z,15.50
2023-04-01T03:10:31.103Z,14.90
2023-04-01T03:18:39.216Z,15.00
2023-04-01T03:26:44.629Z,14.90
2023-04-01T03:34:53.193Z,15.00
2023-04-01T03:43:01.960Z,15.40
2023-04-01T03:51:13.611Z,15.20
2023-04-01T03:59:19.309Z,15.50
2023-04-01T04:07:28.289Z,15.60
2023-04-01T04:15:43.548Z,15.50
2023-04-01T04:23:51.924Z,15.50
2023-04-01T04:31:58.857Z,15.40
2023-04-01T04:40:07.888Z,15.30
2023-04-01T04:48:17.288Z,15.50
2023-04-01T04:56:27.360Z,15.60
2023-04-01T05:04:43.638Z,15.70
2023-04-01T05:12:52.636Z,15.80
2023-04-01T05:21:00.746Z,15.60
2023-04-01T05:29:09.095Z,15.90
2023-04-01T05:37:14.787Z,16.00
2023-04-01T05:45:22.883Z,15.90
2023-04-01T05:53:40.508Z,16.00
2023-04-01T06:01:48.794Z,16.50
2023-04-01T06:09:54.914Z,16.30
2023-04-01T06:18:25.539Z,16.40
2023-04-01T06:26:41.732Z,16.70
2023-04-01T06:35:06.563Z,16.90
2023-04-01T06:43:21.024Z,17.10
2023-04-01T06:52:00.285Z,17.00
2023-04-01T07:00:31.161Z,17.20
2023-04-01T07:08:44.673Z,17.30
2023-04-01T07:16:56.604Z,17.80
2023-04-01T07:25:09.474Z,17.80
2023-04-01T07:33:20.797Z,18.40
2023-04-01T07:41:36.364Z,18.60
2023-04-01T07:49:49.485Z,18.80
2023-04-01T07:58:06.102Z,19.00
2023-04-01T08:06:21.675Z,19.00
2023-04-01T08:14:36.365Z,19.00
2023-04-01T08:23:20.702Z,18.90
2023-04-01T08:31:35.976Z,19.10
2023-04-01T08:39:45.174Z,19.40
2023-04-01T08:48:20.203Z,19.80
2023-04-01T08:56:34.408Z,20.30
2023-04-01T09:05:02.126Z,20.50
2023-04-01T09:13:34.619Z,20.70
2023-04-01T09:22:02.909Z,20.50
2023-04-01T09:30:36.553Z,20.20
2023-04-01T09:38:54.074Z,20.10
2023-04-01T09:47:19.987Z,20.10
2023-04-01T09:56:00.506Z,20.30
2023-04-01T10:04:36.424Z,20.40
2023-04-01T10:13:15.748Z,20.80
2023-04-01T10:21:40.300Z,21.20
2023-04-01T10:30:22.861Z,21.10
2023-04-01T10:39:08.089Z,21.10
2023-04-01T10:47:53.567Z,21.60
2023-04-01T10:56:29.214Z,22.20
2023-04-01T11:05:41.038Z,22.50
2023-04-01T11:14:31.645Z,21.80
2023-04-01T11:23:09.371Z,21.40
2023-04-01T11:31:33.029Z,21.10
2023-04-01T11:39:45.862Z,20.90
2023-04-01T11:48:37.131Z,20.80
2023-04-01T11:56:55.927Z,20.90
2023-04-01T12:05:27.160Z,20.60
2023-04-01T12:13:43.927Z,20.30
2023-04-01T12:22:02.621Z,20.20
2023-04-01T12:30:29.215Z,20.00
2023-04-01T12:38:51.740Z,20.00
2023-04-01T12:47:15.690Z,19.90
2023-04-01T12:55:46.155Z,19.70
2023-04-01T13:04:20.345Z,19.60
2023-04-01T13:12:46.472Z,19.50
2023-04-01T13:21:02.207Z,19.40
2023-04-01T13:29:18.981Z,19.40
2023-04-01T13:37:36.407Z,19.40
2023-04-01T13:45:57.705Z,19.40
2023-04-01T13:54:35.780Z,19.40
2023-04-01T14:03:13.415Z,19.50
2023-04-01T14:11:28.839Z,18.90
2023-04-01T14:19:53.513Z,18.50
2023-04-01T14:28:07.664Z,18.50
2023-04-01T14:36:42.361Z,18.60
2023-04-01T14:45:06.039Z,18.50
2023-04-01T14:53:31.739Z,18.50
2023-04-01T15:01:49.328Z,18.30
2023-04-01T15:10:09.015Z,18.30
2023-04-01T15:18:21.780Z,18.40
2023-04-01T15:26:42.990Z,18.20
2023-04-01T15:34:58.268Z,17.90
2023-04-01T15:43:23.376Z,17.80
2023-04-01T15:51:45.444Z,17.80
2023-04-01T16:00:14.540Z,16.90
2023-04-01T16:08:46.546Z,17.00
2023-04-01T16:17:05.146Z,16.90
2023-04-01T16:25:24.500Z,16.70
2023-04-01T16:33:44.626Z,16.80
2023-04-01T16:41:56.185Z,16.90
2023-04-01T16:50:10.755Z,16.90
2023-04-01T16:58:22.775Z,17.00
2023-04-01T17:06:40.306Z,17.10
2023-04-01T17:14:50.469Z,17.20
2023-04-01T17:23:02.994Z,17.20
2023-04-01T17:31:18.304Z,17.20
2023-04-01T17:39:45.091Z,17.30
2023-04-01T17:47:58.490Z,17.40
2023-04-01T17:56:15.656Z,17.20
2023-04-01T18:04:41.410Z,17.10
2023-04-01T18:13:11.163Z,17.20
2023-04-01T18:21:23.103Z,17.30
2023-04-01T18:29:40.968Z,17.10
2023-04-01T18:37:50.655Z,16.90
2023-04-01T18:46:03.397Z,16.70
2023-04-01T18:54:15.849Z,16.50
2023-04-01T19:02:33.512Z,16.30
2023-04-01T19:10:50.520Z,16.30
2023-04-01T19:19:09.815Z,16.20
2023-04-01T19:27:25.819Z,16.00
2023-04-01T19:35:43.475Z,15.90
2023-04-01T19:43:58.351Z,15.80
2023-04-01T19:52:13.556Z,15.80
2023-04-01T20:00:26.890Z,15.70
2023-04-01T20:08:41.236Z,15.60
2023-04-01T20:17:00.170Z,15.40
2023-04-01T20:25:16.756Z,15.60
2023-04-01T20:33:53.185Z,15.50
2023-04-01T20:42:26.513Z,15.50
2023-04-01T20:50:36.035Z,15.50
2023-04-01T20:58:54.841Z,15.60
2023-04-01T21:07:32.737Z,15.40
2023-04-01T21:15:52.037Z,15.50
2023-04-01T21:24:27.381Z,15.60
2023-04-01T21:33:00.441Z,15.40
2023-04-01T21:41:24.881Z,15.00
2023-04-01T21:50:00.604Z,14.70
2023-04-01T21:58:35.563Z,14.60
2023-04-01T22:06:46.686Z,14.70
2023-04-01T22:14:59.872Z,14.70
2023-04-01T22:23:25.012Z,14.50
2023-04-01T22:31:36.971Z,14.40
2023-04-01T22:40:03.667Z,14.30
2023-04-01T22:48:16.550Z,14.20
2023-04-01T22:56:31.000Z,13.80
2023-04-01T23:04:43.270Z,13.70
2023-04-01T23:12:54.165Z,13.60
2023-04-01T23:21:15.998Z,14.00
2023-04-01T23:29:27.072Z,14.10
2023-04-01T23:37:32.690Z,14.30
2023-04-01T23:45:40.818Z,14.70
2023-04-01T23:53:49.072Z,14.90
